Time;durP1;ratioP1;P1;durP2;ratioP2;P2;SDS_P1;SDS_P2;PMS_P1;PMS_P2;Temp;Humidity;BMP_temperature;BMP_pressure;BME280_temperature;BME280_humidity;BME280_pressure;Samples;Min_cycle;Max_cycle;Signal;HPM_P1;HPM_P2
2022/08/31 00:04:37;;;;;;;;;;;18.50;99.90;;;;;;5048060;28;19928;-70
2022/08/31 00:07:04;;;;;;;;;;;18.50;99.90;;;;;;5037254;28;19925;-70
2022/08/31 00:09:31;;;;;;;;;;;18.50;99.90;;;;;;5060532;28;19971;-70
2022/08/31 00:12:00;;;;;;;;;;;18.40;99.90;;;;;;5031496;28;19925;-70
2022/08/31 00:14:26;;;;;;;;;;;18.40;99.90;;;;;;5027184;28;20347;-70
2022/08/31 00:16:53;;;;;;;;;;;18.40;99.90;;;;;;5033139;28;19924;-70
2022/08/31 00:19:20;;;;;;;;;;;18.40;99.90;;;;;;5041717;28;19956;-71
2022/08/31 00:21:47;;;;;;;;;;;18.40;99.90;;;;;;5052057;28;19974;-71
2022/08/31 00:24:13;;;;;;;;;;;18.30;99.90;;;;;;5049475;28;19928;-72
2022/08/31 00:26:41;;;;;;;;;;;18.30;99.90;;;;;;5050720;28;20003;-71
2022/08/31 00:29:09;;;;;;;;;;;18.20;99.90;;;;;;5050506;28;19925;-71
2022/08/31 00:31:36;;;;;;;;;;;18.20;99.90;;;;;;5050589;28;19932;-71
2022/08/31 00:34:03;;;;;;;;;;;18.20;99.90;;;;;;5050307;28;19925;-72
2022/08/31 00:36:30;;;;;;;;;;;18.20;99.90;;;;;;5050588;28;20303;-71
2022/08/31 00:38:57;;;;;;;;;;;18.10;99.90;;;;;;5044568;28;20020;-71
2022/08/31 00:41:26;;;;;;;;;;;18.10;99.90;;;;;;5050749;28;19967;-72
2022/08/31 00:43:54;;;;;;;;;;;18.20;99.90;;;;;;5050254;28;20319;-71
2022/08/31 00:46:23;;;;;;;;;;;18.20;99.90;;;;;;5050407;28;19925;-72
2022/08/31 00:48:54;;;;;;;;;;;18.20;99.90;;;;;;5049760;28;19955;-70
2022/08/31 00:51:21;;;;;;;;;;;18.20;99.90;;;;;;5050419;28;19973;-71
2022/08/31 00:53:47;;;;;;;;;;;18.10;99.90;;;;;;5050903;28;19982;-72
2022/08/31 00:56:15;;;;;;;;;;;18.10;99.90;;;;;;5054594;28;19925;-72
2022/08/31 00:58:43;;;;;;;;;;;18.10;99.90;;;;;;5054346;28;19925;-72
2022/08/31 01:01:11;;;;;;;;;;;18.10;99.90;;;;;;5054445;28;20019;-71
2022/08/31 01:03:39;;;;;;;;;;;18.10;99.90;;;;;;5053953;28;19932;-71
2022/08/31 01:06:06;;;;;;;;;;;18.10;99.90;;;;;;5054252;28;19925;-71
2022/08/31 01:08:33;;;;;;;;;;;18.10;99.90;;;;;;5053822;28;19925;-71
2022/08/31 01:11:00;;;;;;;;;;;18.10;99.90;;;;;;5054055;28;19932;-72
2022/08/31 01:13:27;;;;;;;;;;;18.10;99.90;;;;;;5054020;28;20314;-71
2022/08/31 01:15:57;;;;;;;;;;;18.10;99.90;;;;;;5053965;28;19982;-69
2022/08/31 01:18:24;;;;;;;;;;;18.10;99.90;;;;;;5053584;28;19925;-71
2022/08/31 01:20:56;;;;;;;;;;;18.10;99.90;;;;;;5050286;28;19924;-71
2022/08/31 01:23:26;;;;;;;;;;;18.10;99.90;;;;;;5054013;28;19990;-72
2022/08/31 01:25:54;;;;;;;;;;;18.10;99.90;;;;;;5051597;28;19924;-72
2022/08/31 01:28:21;;;;;;;;;;;18.10;99.90;;;;;;5050702;28;19931;-72
2022/08/31 01:30:57;;;;;;;;;;;18.10;99.90;;;;;;5043022;28;19929;-72
2022/08/31 01:33:24;;;;;;;;;;;18.10;99.90;;;;;;5051044;28;19932;-72
2022/08/31 01:35:51;;;;;;;;;;;18.10;99.90;;;;;;5046157;28;19925;-71
2022/08/31 01:38:17;;;;;;;;;;;18.00;99.90;;;;;;5051887;28;19928;-71
2022/08/31 01:40:49;;;;;;;;;;;18.00;99.90;;;;;;5046012;28;19925;-72
2022/08/31 01:43:16;;;;;;;;;;;18.00;99.90;;;;;;5049329;28;19925;-71
2022/08/31 01:45:43;;;;;;;;;;;17.90;99.90;;;;;;5047684;28;19924;-71
2022/08/31 01:48:10;;;;;;;;;;;17.80;99.90;;;;;;5049590;28;19988;-71
2022/08/31 01:50:37;;;;;;;;;;;17.80;99.90;;;;;;5047586;28;19925;-71
2022/08/31 01:53:04;;;;;;;;;;;17.80;99.90;;;;;;5046705;28;19924;-72
2022/08/31 01:55:31;;;;;;;;;;;17.80;99.90;;;;;;5051740;28;19925;-72
2022/08/31 01:58:00;;;;;;;;;;;17.70;99.90;;;;;;5044169;28;19971;-72
2022/08/31 02:00:42;;;;;;;;;;;17.70;99.90;;;;;;5050440;28;19925;-72
2022/08/31 02:03:10;;;;;;;;;;;17.70;99.90;;;;;;5048785;28;19925;-71
2022/08/31 02:05:37;;;;;;;;;;;17.60;99.90;;;;;;5051035;28;19924;-72
2022/08/31 02:08:05;;;;;;;;;;;17.70;99.90;;;;;;5037953;28;19932;-72
2022/08/31 02:10:32;;;;;;;;;;;17.70;99.90;;;;;;5041996;28;19925;-72
2022/08/31 02:13:01;;;;;;;;;;;17.70;99.90;;;;;;5052260;28;19932;-72
2022/08/31 02:15:31;;;;;;;;;;;17.80;99.90;;;;;;5042751;28;19955;-71
2022/08/31 02:17:58;;;;;;;;;;;17.80;99.90;;;;;;5051122;28;19929;-72
2022/08/31 02:20:25;;;;;;;;;;;17.80;99.90;;;;;;5047772;28;20016;-72
2022/08/31 02:22:52;;;;;;;;;;;17.90;99.90;;;;;;5049369;28;19933;-71
2022/08/31 02:25:18;;;;;;;;;;;17.90;99.90;;;;;;5058070;28;19925;-72
2022/08/31 02:27:46;;;;;;;;;;;17.90;99.90;;;;;;5046825;28;19925;-71
2022/08/31 02:30:18;;;;;;;;;;;17.90;99.90;;;;;;5045989;28;19925;-71
2022/08/31 02:32:44;;;;;;;;;;;17.90;99.90;;;;;;5046771;28;19925;-71
2022/08/31 02:35:12;;;;;;;;;;;17.90;99.90;;;;;;5044391;28;19924;-71
2022/08/31 02:37:38;;;;;;;;;;;17.80;99.90;;;;;;5047249;28;19983;-71
2022/08/31 02:40:07;;;;;;;;;;;17.80;99.90;;;;;;5037548;28;19925;-70
2022/08/31 02:42:34;;;;;;;;;;;17.70;99.90;;;;;;5050157;28;20369;-71
2022/08/31 02:45:01;;;;;;;;;;;17.60;99.90;;;;;;5045445;28;19932;-71
2022/08/31 02:47:30;;;;;;;;;;;17.40;99.90;;;;;;5048448;28;19975;-71
2022/08/31 02:50:03;;;;;;;;;;;17.30;99.90;;;;;;5056898;22;19927;-68
2022/08/31 02:52:30;;;;;;;;;;;17.20;99.90;;;;;;5029967;28;20015;-67
2022/08/31 02:54:57;;;;;;;;;;;17.20;99.90;;;;;;5027642;28;20469;-68
2022/08/31 02:57:24;;;;;;;;;;;17.10;99.90;;;;;;5028558;28;19925;-68
2022/08/31 02:59:51;;;;;;;;;;;17.10;99.90;;;;;;5030542;28;19925;-68
2022/08/31 03:02:18;;;;;;;;;;;17.10;99.90;;;;;;5050568;28;19925;-69
2022/08/31 03:04:47;;;;;;;;;;;17.10;99.90;;;;;;5050625;28;20377;-68
2022/08/31 03:07:17;;;;;;;;;;;17.10;99.90;;;;;;5050456;28;20039;-68
2022/08/31 03:09:43;;;;;;;;;;;17.10;99.90;;;;;;5050047;28;19929;-68
2022/08/31 03:12:10;;;;;;;;;;;17.00;99.90;;;;;;5049799;28;20404;-68
2022/08/31 03:14:38;;;;;;;;;;;17.00;99.90;;;;;;5050751;28;20011;-69
2022/08/31 03:17:05;;;;;;;;;;;17.00;99.90;;;;;;5048798;28;20400;-68
2022/08/31 03:19:33;;;;;;;;;;;17.00;99.90;;;;;;5046558;28;19990;-68
2022/08/31 03:22:01;;;;;;;;;;;17.00;99.90;;;;;;5050158;28;19932;-69
2022/08/31 03:24:28;;;;;;;;;;;17.00;99.90;;;;;;5050327;28;19925;-69
2022/08/31 03:26:56;;;;;;;;;;;17.00;99.90;;;;;;5050258;28;19925;-67
2022/08/31 03:29:22;;;;;;;;;;;17.00;99.90;;;;;;5049480;28;19925;-68
2022/08/31 03:32:12;;;;;;;;;;;17.00;99.90;;;;;;5050238;28;19925;-67
2022/08/31 03:34:41;;;;;;;;;;;16.90;99.90;;;;;;5050033;28;19925;-68
2022/08/31 03:37:09;;;;;;;;;;;16.90;99.90;;;;;;5050143;28;19929;-67
2022/08/31 03:39:36;;;;;;;;;;;16.90;99.90;;;;;;5049105;28;19925;-69
2022/08/31 03:42:05;;;;;;;;;;;16.90;99.90;;;;;;5046451;28;19931;-68
2022/08/31 03:44:32;;;;;;;;;;;16.90;99.90;;;;;;5045678;28;20400;-68
2022/08/31 03:46:59;;;;;;;;;;;17.00;99.90;;;;;;5049929;28;19924;-68
2022/08/31 03:49:26;;;;;;;;;;;17.00;99.90;;;;;;5042921;28;20300;-67
2022/08/31 03:52:10;;;;;;;;;;;17.10;99.90;;;;;;5047615;28;20396;-67
2022/08/31 03:54:44;;;;;;;;;;;17.10;99.90;;;;;;5049113;28;19925;-68
2022/08/31 03:57:12;;;;;;;;;;;17.00;99.90;;;;;;5050596;28;20402;-68
2022/08/31 03:59:39;;;;;;;;;;;17.00;99.90;;;;;;5050370;28;19925;-68
2022/08/31 04:02:17;;;;;;;;;;;17.00;99.90;;;;;;5056072;28;20021;-68
2022/08/31 04:05:03;;;;;;;;;;;17.00;99.90;;;;;;5052135;28;19932;-68
2022/08/31 04:07:50;;;;;;;;;;;17.00;99.90;;;;;;5048888;28;19995;-68
2022/08/31 04:10:38;;;;;;;;;;;16.90;99.90;;;;;;5051465;28;19932;-68
2022/08/31 04:13:23;;;;;;;;;;;16.90;99.90;;;;;;5050812;28;19931;-68
2022/08/31 04:16:10;;;;;;;;;;;16.80;99.90;;;;;;5051447;28;19932;-68
2022/08/31 04:18:57;;;;;;;;;;;16.80;99.90;;;;;;5046804;28;19932;-68
2022/08/31 04:21:25;;;;;;;;;;;16.80;99.90;;;;;;5062669;28;19964;-69
2022/08/31 04:23:53;;;;;;;;;;;16.80;99.90;;;;;;5050305;28;20333;-68
2022/08/31 04:26:21;;;;;;;;;;;16.70;99.90;;;;;;5050551;28;19928;-68
2022/08/31 04:28:48;;;;;;;;;;;16.70;99.90;;;;;;5049526;28;19928;-67
2022/08/31 04:31:15;;;;;;;;;;;16.70;99.90;;;;;;5050746;28;19931;-69
2022/08/31 04:33:43;;;;;;;;;;;16.70;99.90;;;;;;5050025;28;19925;-67
2022/08/31 04:36:11;;;;;;;;;;;16.70;99.90;;;;;;5050401;28;20385;-67
2022/08/31 04:38:39;;;;;;;;;;;16.70;99.90;;;;;;5050212;28;19929;-67
2022/08/31 04:41:10;;;;;;;;;;;16.70;99.90;;;;;;5066960;28;19925;-68
2022/08/31 04:43:37;;;;;;;;;;;16.60;99.90;;;;;;5051455;28;20015;-68
2022/08/31 04:46:05;;;;;;;;;;;16.60;99.90;;;;;;5051746;28;19925;-67
2022/08/31 04:48:31;;;;;;;;;;;16.60;99.90;;;;;;5043232;28;19929;-68
2022/08/31 04:51:02;;;;;;;;;;;16.60;99.90;;;;;;5048030;28;19924;-68
2022/08/31 04:53:29;;;;;;;;;;;16.60;99.90;;;;;;5050221;28;19929;-75
2022/08/31 04:55:55;;;;;;;;;;;16.60;99.90;;;;;;5050300;28;19925;-69
2022/08/31 04:58:24;;;;;;;;;;;16.60;99.90;;;;;;5049961;28;19925;-69
2022/08/31 05:00:52;;;;;;;;;;;16.60;99.90;;;;;;5049317;28;19925;-70
2022/08/31 05:03:57;;;;;;;;;;;16.50;99.90;;;;;;5049332;28;19932;-69
2022/08/31 05:06:25;;;;;;;;;;;16.50;99.90;;;;;;5046334;28;19931;-69
2022/08/31 05:08:53;;;;;;;;;;;16.60;99.90;;;;;;5049040;28;19929;-69
2022/08/31 05:11:21;;;;;;;;;;;16.60;99.90;;;;;;5063314;28;19925;-69
2022/08/31 05:13:49;;;;;;;;;;;16.60;99.90;;;;;;5048427;28;20392;-69
2022/08/31 05:16:17;;;;;;;;;;;16.60;99.90;;;;;;5064346;28;19944;-69
2022/08/31 05:18:45;;;;;;;;;;;16.60;99.90;;;;;;5046999;28;19932;-69
2022/08/31 05:21:12;;;;;;;;;;;16.50;99.90;;;;;;5048883;28;20054;-70
2022/08/31 05:23:40;;;;;;;;;;;16.50;99.90;;;;;;5052603;28;19924;-69
2022/08/31 05:26:07;;;;;;;;;;;16.50;99.90;;;;;;5049030;28;19925;-69
2022/08/31 05:28:34;;;;;;;;;;;16.50;99.90;;;;;;5044965;28;19925;-70
2022/08/31 05:31:03;;;;;;;;;;;16.60;99.90;;;;;;5048387;28;19925;-69
2022/08/31 05:33:34;;;;;;;;;;;16.60;99.90;;;;;;5048811;28;19933;-68
2022/08/31 05:36:02;;;;;;;;;;;16.60;99.90;;;;;;5062045;28;20016;-69
2022/08/31 05:38:29;;;;;;;;;;;16.60;99.90;;;;;;5044259;28;19925;-68
2022/08/31 05:40:57;;;;;;;;;;;16.70;99.90;;;;;;5050444;28;19937;-69
2022/08/31 05:43:24;;;;;;;;;;;16.70;99.90;;;;;;5051948;28;19924;-69
2022/08/31 05:45:51;;;;;;;;;;;16.70;99.90;;;;;;5051084;28;19929;-70
2022/08/31 05:48:20;;;;;;;;;;;16.70;99.90;;;;;;5051262;28;19925;-68
2022/08/31 05:50:48;;;;;;;;;;;16.80;99.90;;;;;;5048795;28;20302;-69
2022/08/31 05:53:15;;;;;;;;;;;16.80;99.90;;;;;;5051521;28;19971;-69
2022/08/31 05:55:42;;;;;;;;;;;16.80;99.90;;;;;;5051616;28;19925;-69
2022/08/31 05:58:10;;;;;;;;;;;16.90;99.90;;;;;;5061752;28;19925;-69
2022/08/31 06:00:38;;;;;;;;;;;16.90;99.90;;;;;;5051314;28;19925;-70
2022/08/31 06:03:28;;;;;;;;;;;16.90;99.90;;;;;;5050426;28;19932;-68
2022/08/31 06:05:55;;;;;;;;;;;16.90;99.90;;;;;;5051757;28;20043;-68
2022/08/31 06:08:22;;;;;;;;;;;17.00;99.90;;;;;;5051499;28;19928;-69
2022/08/31 06:10:56;;;;;;;;;;;17.00;99.90;;;;;;5047672;28;19925;-69
2022/08/31 06:13:25;;;;;;;;;;;17.00;99.90;;;;;;5048305;28;20336;-68
2022/08/31 06:15:52;;;;;;;;;;;17.00;99.90;;;;;;5051824;28;19929;-69
2022/08/31 06:18:19;;;;;;;;;;;17.00;99.90;;;;;;5051544;28;19928;-68
2022/08/31 06:20:48;;;;;;;;;;;17.00;99.90;;;;;;5048299;28;19925;-69
2022/08/31 06:23:16;;;;;;;;;;;17.00;99.90;;;;;;5051151;28;20027;-70
2022/08/31 06:25:47;;;;;;;;;;;17.10;99.90;;;;;;5051519;28;19971;-69
2022/08/31 06:28:14;;;;;;;;;;;17.20;99.90;;;;;;5051571;28;19952;-68
2022/08/31 06:30:41;;;;;;;;;;;17.20;99.90;;;;;;5049880;28;19932;-69
2022/08/31 06:33:08;;;;;;;;;;;17.30;99.90;;;;;;5051389;28;19925;-68
2022/08/31 06:35:50;;;;;;;;;;;17.30;99.90;;;;;;5051006;28;19929;-69
2022/08/31 06:38:40;;;;;;;;;;;17.40;99.90;;;;;;5044392;28;19931;-69
2022/08/31 06:41:28;;;;;;;;;;;17.50;99.90;;;;;;5052507;28;20067;-69
2022/08/31 06:44:13;;;;;;;;;;;17.50;99.90;;;;;;5049307;28;19931;-69
2022/08/31 06:46:56;;;;;;;;;;;17.50;99.90;;;;;;5051182;28;19924;-69
2022/08/31 06:49:25;;;;;;;;;;;17.60;99.90;;;;;;5050498;28;20329;-69
2022/08/31 06:51:59;;;;;;;;;;;17.70;99.90;;;;;;5050224;28;19925;-69
2022/08/31 06:54:26;;;;;;;;;;;17.80;99.90;;;;;;5048813;28;19936;-69
2022/08/31 06:57:12;;;;;;;;;;;17.80;99.90;;;;;;5048045;28;19951;-68
2022/08/31 06:59:57;;;;;;;;;;;17.80;99.90;;;;;;5050698;28;20002;-69
2022/08/31 07:02:33;;;;;;;;;;;17.80;99.90;;;;;;5061318;28;19925;-69
2022/08/31 07:05:00;;;;;;;;;;;17.90;99.90;;;;;;5050710;28;19935;-70
2022/08/31 07:07:28;;;;;;;;;;;18.00;99.90;;;;;;5051063;28;19928;-68
2022/08/31 07:09:55;;;;;;;;;;;18.00;99.90;;;;;;5050936;28;19991;-69
2022/08/31 07:12:22;;;;;;;;;;;18.00;99.90;;;;;;5040752;28;19929;-69
2022/08/31 07:14:49;;;;;;;;;;;18.00;99.90;;;;;;5044467;28;19928;-67
2022/08/31 07:17:16;;;;;;;;;;;18.00;99.90;;;;;;5044789;28;19924;-67
2022/08/31 07:19:43;;;;;;;;;;;18.00;99.90;;;;;;5049114;28;20340;-67
2022/08/31 07:22:11;;;;;;;;;;;18.10;99.90;;;;;;5050359;28;19924;-69
2022/08/31 07:24:41;;;;;;;;;;;18.20;99.90;;;;;;5050537;28;19932;-68
2022/08/31 07:27:11;;;;;;;;;;;18.20;99.90;;;;;;5050710;28;19925;-68
2022/08/31 07:29:54;;;;;;;;;;;18.30;99.90;;;;;;5049669;28;19963;-68
2022/08/31 07:32:24;;;;;;;;;;;18.30;99.90;;;;;;5050297;28;20027;-68
2022/08/31 07:34:51;;;;;;;;;;;18.40;99.90;;;;;;5050343;28;19947;-68
2022/08/31 07:43:03;;;;;;;;;;;18.30;99.90;;;;;;5049976;28;19925;-68
2022/08/31 07:45:32;;;;;;;;;;;18.40;99.90;;;;;;5046570;28;20385;-68
2022/08/31 07:47:59;;;;;;;;;;;18.40;99.90;;;;;;5045301;28;19979;-69
2022/08/31 07:50:30;;;;;;;;;;;18.50;99.90;;;;;;5049193;28;19925;-68
2022/08/31 07:53:13;;;;;;;;;;;18.60;99.90;;;;;;5048207;28;19968;-68
2022/08/31 07:55:55;;;;;;;;;;;18.50;99.90;;;;;;5048501;28;19925;-69
2022/08/31 07:58:39;;;;;;;;;;;18.60;99.90;;;;;;5041958;28;19931;-69
2022/08/31 08:01:06;;;;;;;;;;;18.60;99.90;;;;;;5049568;28;19968;-68
2022/08/31 08:03:35;;;;;;;;;;;18.60;99.90;;;;;;5045796;28;19971;-68
2022/08/31 08:06:21;;;;;;;;;;;18.50;99.90;;;;;;5051569;28;19932;-68
2022/08/31 08:09:11;;;;;;;;;;;18.50;99.90;;;;;;5049218;28;20295;-69
2022/08/31 08:11:57;;;;;;;;;;;18.40;99.90;;;;;;5045467;28;20301;-69
2022/08/31 08:14:51;;;;;;;;;;;18.40;99.90;;;;;;5048377;28;20010;-69
2022/08/31 08:17:29;;;;;;;;;;;18.40;99.90;;;;;;5049469;28;19925;-69
2022/08/31 08:20:10;;;;;;;;;;;18.40;99.90;;;;;;5049540;28;19931;-69
2022/08/31 08:22:38;;;;;;;;;;;18.30;99.90;;;;;;5049568;28;19931;-69
2022/08/31 08:25:14;;;;;;;;;;;18.30;99.90;;;;;;5049572;28;19926;-68
2022/08/31 08:27:54;;;;;;;;;;;18.30;99.90;;;;;;5048154;28;19925;-68
2022/08/31 08:30:43;;;;;;;;;;;18.30;99.90;;;;;;5046319;28;20385;-68
2022/08/31 08:33:10;;;;;;;;;;;18.30;99.90;;;;;;5045551;28;19932;-68
2022/08/31 08:35:39;;;;;;;;;;;18.30;99.90;;;;;;5049225;28;20381;-69
2022/08/31 08:38:07;;;;;;;;;;;18.30;99.90;;;;;;5049178;28;20336;-69
2022/08/31 08:40:41;;;;;;;;;;;18.40;99.90;;;;;;5048950;28;19972;-69
2022/08/31 08:43:11;;;;;;;;;;;18.40;99.90;;;;;;5046093;28;20015;-68
2022/08/31 08:45:38;;;;;;;;;;;18.50;99.90;;;;;;5049429;28;19925;-69
2022/08/31 08:48:10;;;;;;;;;;;18.60;99.90;;;;;;5043524;28;20024;-69
2022/08/31 08:50:38;;;;;;;;;;;18.60;99.90;;;;;;5045115;28;20395;-69
2022/08/31 08:53:07;;;;;;;;;;;18.60;99.90;;;;;;5048921;28;20008;-70
2022/08/31 08:55:38;;;;;;;;;;;18.70;99.90;;;;;;5049299;28;19983;-69
2022/08/31 08:58:06;;;;;;;;;;;18.80;99.90;;;;;;5048609;28;20392;-68
2022/08/31 09:00:39;;;;;;;;;;;18.90;99.90;;;;;;5045755;28;19925;-70
2022/08/31 09:03:13;;;;;;;;;;;19.00;99.90;;;;;;5049111;28;19924;-71
2022/08/31 09:05:59;;;;;;;;;;;19.10;99.90;;;;;;5048753;28;19929;-71
2022/08/31 09:08:42;;;;;;;;;;;19.20;99.90;;;;;;5048852;28;19925;-70
2022/08/31 09:11:16;;;;;;;;;;;19.30;99.90;;;;;;5048757;28;19925;-70
2022/08/31 09:13:47;;;;;;;;;;;19.40;99.90;;;;;;5047492;28;20024;-71
2022/08/31 09:16:21;;;;;;;;;;;19.50;99.90;;;;;;5051566;28;20373;-71
2022/08/31 09:18:51;;;;;;;;;;;19.60;99.90;;;;;;5052289;28;20030;-70
2022/08/31 09:21:20;;;;;;;;;;;19.60;99.90;;;;;;5052830;28;19961;-71
2022/08/31 09:23:54;;;;;;;;;;;19.70;99.90;;;;;;5050573;28;20027;-71
2022/08/31 09:26:26;;;;;;;;;;;19.80;99.90;;;;;;5068056;28;19925;-71
2022/08/31 09:29:04;;;;;;;;;;;19.90;99.90;;;;;;5052110;28;20006;-71
2022/08/31 09:31:35;;;;;;;;;;;20.00;99.90;;;;;;5047536;28;19924;-71
2022/08/31 09:34:03;;;;;;;;;;;20.00;99.90;;;;;;5048631;28;19954;-71
2022/08/31 09:36:39;;;;;;;;;;;20.10;99.90;;;;;;5052565;28;20299;-71
2022/08/31 09:39:18;;;;;;;;;;;20.20;99.90;;;;;;5051646;28;20027;-71
2022/08/31 09:41:45;;;;;;;;;;;20.20;99.90;;;;;;5052517;28;19925;-71
2022/08/31 09:44:23;;;;;;;;;;;20.30;99.90;;;;;;5052082;28;19924;-71
2022/08/31 09:46:53;;;;;;;;;;;20.40;99.90;;;;;;5052614;28;19979;-71
2022/08/31 09:49:21;;;;;;;;;;;20.50;99.90;;;;;;5051386;28;19925;-70
2022/08/31 09:51:48;;;;;;;;;;;20.70;99.90;;;;;;5051974;28;19925;-70
2022/08/31 09:57:04;;;;;;;;;;;20.70;99.90;;;;;;5052250;28;19921;-71
2022/08/31 09:59:36;;;;;;;;;;;20.80;99.90;;;;;;5051473;28;19928;-69
2022/08/31 10:02:07;;;;;;;;;;;21.00;99.90;;;;;;5050365;28;19928;-71
2022/08/31 10:04:45;;;;;;;;;;;21.20;99.90;;;;;;5049879;28;19929;-71
2022/08/31 10:07:23;;;;;;;;;;;21.40;99.90;;;;;;5051836;28;19975;-71
2022/08/31 10:09:53;;;;;;;;;;;21.60;99.90;;;;;;5051373;28;19925;-71
2022/08/31 10:12:21;;;;;;;;;;;21.80;99.90;;;;;;5047459;28;19975;-71
2022/08/31 10:14:52;;;;;;;;;;;22.00;99.90;;;;;;5051796;28;19975;-71
2022/08/31 10:17:25;;;;;;;;;;;22.10;99.90;;;;;;5051784;28;19925;-71
2022/08/31 10:19:54;;;;;;;;;;;22.30;99.90;;;;;;5050964;28;19928;-70
2022/08/31 10:22:27;;;;;;;;;;;22.30;99.90;;;;;;5051444;28;19925;-70
2022/08/31 10:25:10;;;;;;;;;;;22.50;99.90;;;;;;5051284;28;19925;-70
2022/08/31 10:27:39;;;;;;;;;;;22.50;99.90;;;;;;5049568;28;20013;-69
2022/08/31 10:30:07;;;;;;;;;;;22.50;99.90;;;;;;5051119;28;19951;-70
2022/08/31 10:32:38;;;;;;;;;;;22.60;99.90;;;;;;5051143;28;19925;-71
2022/08/31 10:35:08;;;;;;;;;;;22.80;99.90;;;;;;5051363;28;19932;-71
2022/08/31 10:37:48;;;;;;;;;;;23.00;99.90;;;;;;5051272;28;19920;-70
2022/08/31 10:40:17;;;;;;;;;;;23.00;99.90;;;;;;5050886;28;19978;-70
2022/08/31 10:42:49;;;;;;;;;;;23.00;99.90;;;;;;5048982;28;19925;-70
2022/08/31 10:45:21;;;;;;;;;;;23.10;99.90;;;;;;5050899;28;21231;-71
2022/08/31 10:47:50;;;;;;;;;;;23.10;99.90;;;;;;5050664;28;20355;-71
2022/08/31 10:50:23;;;;;;;;;;;23.00;99.90;;;;;;5047639;28;20385;-70
2022/08/31 10:52:55;;;;;;;;;;;22.90;99.90;;;;;;5049472;28;19935;-71
2022/08/31 10:55:28;;;;;;;;;;;22.90;99.90;;;;;;5050539;28;19925;-71
2022/08/31 10:58:01;;;;;;;;;;;22.90;99.90;;;;;;5047146;28;20015;-68
2022/08/31 11:00:47;;;;;;;;;;;23.00;99.90;;;;;;5049147;28;19925;-70
2022/08/31 11:03:23;;;;;;;;;;;23.10;99.90;;;;;;5048362;28;19925;-70
2022/08/31 11:05:53;;;;;;;;;;;23.20;99.90;;;;;;5050787;28;19960;-71
2022/08/31 11:08:29;;;;;;;;;;;23.20;99.90;;;;;;5050622;28;19928;-70
2022/08/31 11:10:57;;;;;;;;;;;23.20;99.90;;;;;;5046909;28;19932;-70
2022/08/31 11:13:37;;;;;;;;;;;23.20;99.90;;;;;;5051073;28;19925;-70
2022/08/31 11:16:15;;;;;;;;;;;23.10;99.90;;;;;;5043724;28;19925;-70
2022/08/31 11:19:06;;;;;;;;;;;23.00;99.90;;;;;;5047890;28;19925;-70
2022/08/31 11:21:52;;;;;;;;;;;22.90;99.90;;;;;;5049640;28;19979;-71
2022/08/31 11:24:35;;;;;;;;;;;22.80;99.90;;;;;;5050289;28;20018;-69
2022/08/31 11:27:04;;;;;;;;;;;22.90;99.90;;;;;;5050459;28;19925;-70
2022/08/31 11:29:35;;;;;;;;;;;23.00;99.90;;;;;;5049830;28;19936;-71
2022/08/31 11:32:09;;;;;;;;;;;22.80;99.90;;;;;;5050668;28;19971;-71
2022/08/31 11:34:45;;;;;;;;;;;22.70;99.90;;;;;;5047129;28;19935;-71
2022/08/31 11:37:12;;;;;;;;;;;22.70;99.90;;;;;;5066510;28;19931;-71
2022/08/31 11:39:43;;;;;;;;;;;22.60;99.90;;;;;;5049296;28;19947;-72
2022/08/31 11:42:12;;;;;;;;;;;22.60;99.90;;;;;;5045781;28;19964;-71
2022/08/31 11:44:57;;;;;;;;;;;22.60;99.90;;;;;;5049866;28;20021;-71
2022/08/31 11:47:40;;;;;;;;;;;22.50;99.90;;;;;;5042641;28;19932;-71
2022/08/31 11:50:11;;;;;;;;;;;22.50;99.90;;;;;;5047022;28;19925;-71
2022/08/31 11:52:41;;;;;;;;;;;22.50;99.90;;;;;;5049738;28;19929;-70
2022/08/31 11:55:13;;;;;;;;;;;22.70;99.90;;;;;;5050410;28;20345;-69
2022/08/31 11:58:05;;;;;;;;;;;22.80;99.90;;;;;;5049776;28;19932;-69
2022/08/31 12:00:41;;;;;;;;;;;22.90;99.90;;;;;;5049565;28;19925;-70
2022/08/31 12:03:08;;;;;;;;;;;23.00;99.90;;;;;;5041849;28;19932;-69
2022/08/31 12:05:49;;;;;;;;;;;23.00;99.90;;;;;;5047676;28;19925;-69
2022/08/31 12:08:17;;;;;;;;;;;23.10;99.90;;;;;;5047377;28;20328;-69
2022/08/31 12:10:53;;;;;;;;;;;23.40;99.90;;;;;;5047115;28;19955;-69
2022/08/31 12:13:31;;;;;;;;;;;23.60;99.90;;;;;;5047835;28;20007;-69
2022/08/31 12:16:08;;;;;;;;;;;23.70;99.90;;;;;;5045100;28;19924;-69
2022/08/31 12:18:42;;;;;;;;;;;23.90;99.90;;;;;;5047880;28;20384;-69
2022/08/31 12:24:04;;;;;;;;;;;24.50;99.90;;;;;;5049043;28;19960;-70
2022/08/31 12:26:40;;;;;;;;;;;24.60;99.90;;;;;;5049597;28;20026;-70
2022/08/31 12:29:16;;;;;;;;;;;24.90;99.90;;;;;;5048304;28;20035;-69
2022/08/31 12:31:43;;;;;;;;;;;25.10;99.90;;;;;;5045989;28;19924;-70
2022/08/31 12:34:12;;;;;;;;;;;24.80;99.90;;;;;;5047223;28;19925;-69
2022/08/31 12:36:40;;;;;;;;;;;24.60;99.90;;;;;;5049075;28;20413;-70
2022/08/31 12:39:08;;;;;;;;;;;24.70;99.90;;;;;;5048637;28;19960;-70
2022/08/31 12:41:37;;;;;;;;;;;25.00;99.90;;;;;;5047697;28;19925;-70
2022/08/31 12:44:04;;;;;;;;;;;25.30;99.90;;;;;;5048848;28;19929;-70
2022/08/31 12:46:40;;;;;;;;;;;26.00;99.90;;;;;;5049637;28;19925;-70
2022/08/31 12:49:22;;;;;;;;;;;26.50;99.90;;;;;;5045596;28;20454;-70
2022/08/31 12:51:53;;;;;;;;;;;26.70;99.90;;;;;;5049629;28;19924;-70
2022/08/31 12:54:31;;;;;;;;;;;26.90;99.90;;;;;;5052952;28;19925;-70
2022/08/31 12:57:02;;;;;;;;;;;27.20;99.90;;;;;;5053348;28;19924;-71
2022/08/31 12:59:34;;;;;;;;;;;27.30;99.90;;;;;;5052744;28;19924;-70
2022/08/31 13:02:01;;;;;;;;;;;27.20;99.90;;;;;;5053100;28;19932;-70
2022/08/31 13:04:28;;;;;;;;;;;27.30;99.90;;;;;;5048347;28;19925;-70
2022/08/31 13:07:11;;;;;;;;;;;27.40;99.90;;;;;;5053219;28;19928;-70
2022/08/31 13:09:38;;;;;;;;;;;27.10;99.90;;;;;;5048320;28;19987;-71
2022/08/31 13:12:05;;;;;;;;;;;27.40;99.90;;;;;;5053306;28;19925;-70
2022/08/31 13:14:39;;;;;;;;;;;27.70;99.90;;;;;;5050368;28;19925;-70
2022/08/31 13:17:10;;;;;;;;;;;27.90;99.90;;;;;;5049692;28;19929;-70
2022/08/31 13:19:38;;;;;;;;;;;27.90;99.90;;;;;;5052199;28;19967;-70
2022/08/31 13:22:07;;;;;;;;;;;28.20;99.90;;;;;;5050659;28;19925;-69
2022/08/31 13:24:35;;;;;;;;;;;28.40;99.90;;;;;;5049793;28;19925;-70
2022/08/31 13:27:02;;;;;;;;;;;29.00;99.90;;;;;;5046766;28;19975;-69
2022/08/31 13:29:30;;;;;;;;;;;29.40;99.90;;;;;;5052294;28;19929;-70
2022/08/31 13:31:58;;;;;;;;;;;30.30;99.90;;;;;;5050393;28;19925;-69
2022/08/31 13:34:25;;;;;;;;;;;31.20;99.90;;;;;;5052528;28;19925;-70
2022/08/31 13:36:53;;;;;;;;;;;31.70;99.90;;;;;;5052378;28;19924;-70
2022/08/31 13:39:25;;;;;;;;;;;32.70;99.90;;;;;;5051977;28;19925;-70
2022/08/31 13:41:56;;;;;;;;;;;33.40;99.90;;;;;;5050755;28;19982;-71
2022/08/31 13:44:32;;;;;;;;;;;34.50;99.90;;;;;;5051281;28;19925;-70
2022/08/31 13:47:01;;;;;;;;;;;35.40;99.90;;;;;;5051970;28;19925;-70
2022/08/31 13:49:31;;;;;;;;;;;35.80;99.90;;;;;;5049963;28;20467;-71
2022/08/31 13:51:58;;;;;;;;;;;36.60;99.90;;;;;;5050695;28;20392;-70
2022/08/31 13:54:28;;;;;;;;;;;36.80;99.90;;;;;;5051739;28;19929;-70
2022/08/31 13:56:54;;;;;;;;;;;37.30;99.90;;;;;;5051957;28;19924;-70
2022/08/31 13:59:26;;;;;;;;;;;37.10;99.90;;;;;;5051366;28;19925;-70
2022/08/31 14:01:54;;;;;;;;;;;36.50;99.90;;;;;;5051683;28;20394;-71
2022/08/31 14:04:42;;;;;;;;;;;35.90;99.90;;;;;;5051282;28;19937;-70
2022/08/31 14:07:15;;;;;;;;;;;36.60;99.90;;;;;;5051474;28;19952;-70
2022/08/31 14:09:44;;;;;;;;;;;36.70;99.90;;;;;;5064066;28;20191;-70
2022/08/31 14:12:20;;;;;;;;;;;36.90;99.90;;;;;;5047694;28;20400;-73
2022/08/31 14:14:48;;;;;;;;;;;36.60;99.90;;;;;;5051549;28;19928;-74
2022/08/31 14:17:15;;;;;;;;;;;37.10;99.90;;;;;;5051664;28;19925;-71
2022/08/31 14:19:43;;;;;;;;;;;37.40;99.90;;;;;;5050952;28;19925;-71
2022/08/31 14:22:16;;;;;;;;;;;36.50;99.90;;;;;;5051732;28;20351;-70
2022/08/31 14:24:44;;;;;;;;;;;35.80;99.90;;;;;;5051236;28;20303;-71
2022/08/31 14:27:12;;;;;;;;;;;35.50;99.90;;;;;;5048809;28;19924;-71
2022/08/31 14:29:39;;;;;;;;;;;35.50;99.90;;;;;;5051278;28;20374;-71
2022/08/31 14:32:06;;;;;;;;;;;35.90;99.90;;;;;;5051140;28;19925;-72
2022/08/31 14:34:34;;;;;;;;;;;36.00;99.90;;;;;;5051400;28;20668;-71
2022/08/31 14:37:05;;;;;;;;;;;36.00;99.90;;;;;;5048323;28;19925;-71
2022/08/31 14:39:32;;;;;;;;;;;36.40;99.90;;;;;;5047140;28;19932;-70
2022/08/31 14:42:04;;;;;;;;;;;36.20;99.90;;;;;;5049240;28;20462;-70
2022/08/31 14:44:32;;;;;;;;;;;37.10;99.90;;;;;;5040191;28;19926;-70
2022/08/31 14:46:59;;;;;;;;;;;37.80;99.90;;;;;;5052394;28;19960;-70
2022/08/31 14:49:27;;;;;;;;;;;37.60;99.90;;;;;;5051881;28;19968;-71
2022/08/31 14:51:58;;;;;;;;;;;37.60;99.90;;;;;;5045804;22;19925;-73
2022/08/31 14:54:27;;;;;;;;;;;36.50;99.90;;;;;;5027207;28;19926;-71